Terminal Aerodrome Forecast
Issued by NWS Lake Charles, LA

Home | Current Version | Previous Version | Text Only | Print | Product List | Glossary On
Versions: 1 2 3 4 5 6 7 8 9 10 11 12 13 14 15
000
FTUS44 KLCH 212300 RRA
TAFARA
TAF
KARA 212341Z 2200/2224 VRB05KT P6SM SKC
     FM221500 02008KT P6SM SKC
     FM221800 03008KT P6SM VCTS SCT035CB=

USA.gov is the U.S. government's official web portal to all federal, state and local government web resources and services.